sensor_id;sensor_type;location;lat;lon;timestamp;temperature;humidity
6948;DHT22;3513;47.664;9.162;2022-08-23T00:01:43;17.20;99.90
6948;DHT22;3513;47.664;9.162;2022-08-23T00:04:12;17.20;99.90
6948;DHT22;3513;47.664;9.162;2022-08-23T00:06:39;17.20;99.90
6948;DHT22;3513;47.664;9.162;2022-08-23T00:09:07;17.20;99.90
6948;DHT22;3513;47.664;9.162;2022-08-23T00:11:43;17.10;99.90
6948;DHT22;3513;47.664;9.162;2022-08-23T00:16:35;17.00;99.90
6948;DHT22;3513;47.664;9.162;2022-08-23T00:19:02;16.90;99.90
6948;DHT22;3513;47.664;9.162;2022-08-23T00:21:28;16.90;99.90
6948;DHT22;3513;47.664;9.162;2022-08-23T00:23:55;17.00;99.90
6948;DHT22;3513;47.664;9.162;2022-08-23T00:26:21;17.00;99.90
6948;DHT22;3513;47.664;9.162;2022-08-23T00:28:48;16.90;99.90
6948;DHT22;3513;47.664;9.162;2022-08-23T00:31:15;16.90;99.90
6948;DHT22;3513;47.664;9.162;2022-08-23T00:33:40;16.80;99.90
6948;DHT22;3513;47.664;9.162;2022-08-23T00:36:06;16.80;99.90
6948;DHT22;3513;47.664;9.162;2022-08-23T00:38:32;16.70;99.90
6948;DHT22;3513;47.664;9.162;2022-08-23T00:40:57;16.70;99.90
6948;DHT22;3513;47.664;9.162;2022-08-23T00:43:29;16.70;99.90
6948;DHT22;3513;47.664;9.162;2022-08-23T00:49:55;16.70;99.90
6948;DHT22;3513;47.664;9.162;2022-08-23T00:52:36;16.80;99.90
6948;DHT22;3513;47.664;9.162;2022-08-23T00:55:04;16.70;99.90
6948;DHT22;3513;47.664;9.162;2022-08-23T00:57:30;16.60;99.90
6948;DHT22;3513;47.664;9.162;2022-08-23T00:59:57;16.50;99.90
6948;DHT22;3513;47.664;9.162;2022-08-23T01:02:23;16.50;99.90
6948;DHT22;3513;47.664;9.162;2022-08-23T01:04:54;16.50;99.90
6948;DHT22;3513;47.664;9.162;2022-08-23T01:07:47;16.50;99.90
6948;DHT22;3513;47.664;9.162;2022-08-23T01:10:38;16.40;99.90
6948;DHT22;3513;47.664;9.162;2022-08-23T01:13:15;16.40;99.90
6948;DHT22;3513;47.664;9.162;2022-08-23T01:15:45;16.40;99.90
6948;DHT22;3513;47.664;9.162;2022-08-23T01:18:14;16.40;99.90
6948;DHT22;3513;47.664;9.162;2022-08-23T01:20:53;16.40;99.90
6948;DHT22;3513;47.664;9.162;2022-08-23T01:25:54;16.40;99.90
6948;DHT22;3513;47.664;9.162;2022-08-23T01:28:21;16.30;99.90
6948;DHT22;3513;47.664;9.162;2022-08-23T01:30:47;16.40;99.90
6948;DHT22;3513;47.664;9.162;2022-08-23T01:33:13;16.30;99.90
6948;DHT22;3513;47.664;9.162;2022-08-23T01:35:43;16.30;99.90
6948;DHT22;3513;47.664;9.162;2022-08-23T01:38:10;16.30;99.90
6948;DHT22;3513;47.664;9.162;2022-08-23T01:40:37;16.40;99.90
6948;DHT22;3513;47.664;9.162;2022-08-23T01:43:03;16.30;99.90
6948;DHT22;3513;47.664;9.162;2022-08-23T01:45:30;16.20;99.90
6948;DHT22;3513;47.664;9.162;2022-08-23T01:47:56;16.10;99.90
6948;DHT22;3513;47.664;9.162;2022-08-23T01:50:23;16.20;99.90
6948;DHT22;3513;47.664;9.162;2022-08-23T01:52:48;16.20;99.90
6948;DHT22;3513;47.664;9.162;2022-08-23T01:55:15;16.30;99.90
6948;DHT22;3513;47.664;9.162;2022-08-23T01:57:42;16.20;99.90
6948;DHT22;3513;47.664;9.162;2022-08-23T02:00:10;16.10;99.90
6948;DHT22;3513;47.664;9.162;2022-08-23T02:02:36;16.00;99.90
6948;DHT22;3513;47.664;9.162;2022-08-23T02:05:04;16.00;99.90
6948;DHT22;3513;47.664;9.162;2022-08-23T02:07:30;16.00;99.90
6948;DHT22;3513;47.664;9.162;2022-08-23T02:09:56;16.00;99.90
6948;DHT22;3513;47.664;9.162;2022-08-23T02:12:22;15.90;99.90
6948;DHT22;3513;47.664;9.162;2022-08-23T02:14:47;15.80;99.90
6948;DHT22;3513;47.664;9.162;2022-08-23T02:17:13;15.80;99.90
6948;DHT22;3513;47.664;9.162;2022-08-23T02:19:41;15.80;99.90
6948;DHT22;3513;47.664;9.162;2022-08-23T02:22:07;15.80;99.90
6948;DHT22;3513;47.664;9.162;2022-08-23T02:24:33;15.70;99.90
6948;DHT22;3513;47.664;9.162;2022-08-23T02:27:03;15.70;99.90
6948;DHT22;3513;47.664;9.162;2022-08-23T02:29:29;15.70;99.90
6948;DHT22;3513;47.664;9.162;2022-08-23T02:31:56;15.70;99.90
6948;DHT22;3513;47.664;9.162;2022-08-23T02:34:22;15.70;99.90
6948;DHT22;3513;47.664;9.162;2022-08-23T02:36:48;15.70;99.90
6948;DHT22;3513;47.664;9.162;2022-08-23T02:39:16;15.70;99.90
6948;DHT22;3513;47.664;9.162;2022-08-23T02:41:42;15.70;99.90
6948;DHT22;3513;47.664;9.162;2022-08-23T02:44:08;15.70;99.90
6948;DHT22;3513;47.664;9.162;2022-08-23T02:46:36;15.70;99.90
6948;DHT22;3513;47.664;9.162;2022-08-23T02:49:03;15.80;99.90
6948;DHT22;3513;47.664;9.162;2022-08-23T02:51:28;15.90;99.90
6948;DHT22;3513;47.664;9.162;2022-08-23T02:53:54;15.90;99.90
6948;DHT22;3513;47.664;9.162;2022-08-23T02:56:20;15.80;99.90
6948;DHT22;3513;47.664;9.162;2022-08-23T02:58:46;15.70;99.90
6948;DHT22;3513;47.664;9.162;2022-08-23T03:01:18;15.60;99.90
6948;DHT22;3513;47.664;9.162;2022-08-23T03:03:44;15.60;99.90
6948;DHT22;3513;47.664;9.162;2022-08-23T03:06:14;15.60;99.90
6948;DHT22;3513;47.664;9.162;2022-08-23T03:08:41;15.80;99.90
6948;DHT22;3513;47.664;9.162;2022-08-23T03:11:15;15.60;99.90
6948;DHT22;3513;47.664;9.162;2022-08-23T03:13:42;15.60;99.90
6948;DHT22;3513;47.664;9.162;2022-08-23T03:16:09;15.40;99.90
6948;DHT22;3513;47.664;9.162;2022-08-23T03:18:36;15.40;99.90
6948;DHT22;3513;47.664;9.162;2022-08-23T03:21:03;15.40;99.90
6948;DHT22;3513;47.664;9.162;2022-08-23T03:23:29;15.40;99.90
6948;DHT22;3513;47.664;9.162;2022-08-23T03:25:56;15.40;99.90
6948;DHT22;3513;47.664;9.162;2022-08-23T03:28:23;15.40;99.90
6948;DHT22;3513;47.664;9.162;2022-08-23T03:30:48;15.40;99.90
6948;DHT22;3513;47.664;9.162;2022-08-23T03:33:14;15.30;99.90
6948;DHT22;3513;47.664;9.162;2022-08-23T03:35:40;15.30;99.90
6948;DHT22;3513;47.664;9.162;2022-08-23T03:38:06;15.30;99.90
6948;DHT22;3513;47.664;9.162;2022-08-23T03:40:32;15.30;99.90
6948;DHT22;3513;47.664;9.162;2022-08-23T03:42:57;15.40;99.90
6948;DHT22;3513;47.664;9.162;2022-08-23T03:45:23;15.40;99.90
6948;DHT22;3513;47.664;9.162;2022-08-23T03:47:49;15.40;99.90
6948;DHT22;3513;47.664;9.162;2022-08-23T03:50:14;15.40;99.90
6948;DHT22;3513;47.664;9.162;2022-08-23T03:52:40;15.40;99.90
6948;DHT22;3513;47.664;9.162;2022-08-23T03:55:06;15.30;99.90
6948;DHT22;3513;47.664;9.162;2022-08-23T03:57:32;15.30;99.90
6948;DHT22;3513;47.664;9.162;2022-08-23T03:59:58;15.20;99.90
6948;DHT22;3513;47.664;9.162;2022-08-23T04:02:24;15.10;99.90
6948;DHT22;3513;47.664;9.162;2022-08-23T04:04:50;15.00;99.90
6948;DHT22;3513;47.664;9.162;2022-08-23T04:09:44;14.90;99.90
6948;DHT22;3513;47.664;9.162;2022-08-23T04:12:10;14.90;99.90
6948;DHT22;3513;47.664;9.162;2022-08-23T04:14:35;15.00;99.90
6948;DHT22;3513;47.664;9.162;2022-08-23T04:17:01;15.00;99.90
6948;DHT22;3513;47.664;9.162;2022-08-23T04:19:27;15.00;99.90
6948;DHT22;3513;47.664;9.162;2022-08-23T04:21:52;15.10;99.90
6948;DHT22;3513;47.664;9.162;2022-08-23T04:24:19;15.00;99.90
6948;DHT22;3513;47.664;9.162;2022-08-23T04:26:44;15.10;99.90
6948;DHT22;3513;47.664;9.162;2022-08-23T04:29:10;15.00;99.90
6948;DHT22;3513;47.664;9.162;2022-08-23T04:31:39;15.00;99.90
6948;DHT22;3513;47.664;9.162;2022-08-23T04:34:05;15.00;99.90
6948;DHT22;3513;47.664;9.162;2022-08-23T04:36:34;15.00;99.90
6948;DHT22;3513;47.664;9.162;2022-08-23T04:38:59;15.00;99.90
6948;DHT22;3513;47.664;9.162;2022-08-23T04:41:25;15.00;99.90
6948;DHT22;3513;47.664;9.162;2022-08-23T04:44:09;15.00;99.90
6948;DHT22;3513;47.664;9.162;2022-08-23T04:46:35;15.00;99.90
6948;DHT22;3513;47.664;9.162;2022-08-23T04:49:02;15.00;99.90
6948;DHT22;3513;47.664;9.162;2022-08-23T04:51:28;15.00;99.90
6948;DHT22;3513;47.664;9.162;2022-08-23T04:53:53;15.10;99.90
6948;DHT22;3513;47.664;9.162;2022-08-23T04:56:20;15.00;99.90
6948;DHT22;3513;47.664;9.162;2022-08-23T04:58:48;15.10;99.90
6948;DHT22;3513;47.664;9.162;2022-08-23T05:01:13;15.10;99.90
6948;DHT22;3513;47.664;9.162;2022-08-23T05:03:40;15.20;99.90
6948;DHT22;3513;47.664;9.162;2022-08-23T05:06:06;15.30;99.90
6948;DHT22;3513;47.664;9.162;2022-08-23T05:08:33;15.30;99.90
6948;DHT22;3513;47.664;9.162;2022-08-23T05:11:04;15.30;99.90
6948;DHT22;3513;47.664;9.162;2022-08-23T05:13:30;15.40;99.90
6948;DHT22;3513;47.664;9.162;2022-08-23T05:15:56;15.40;99.90
6948;DHT22;3513;47.664;9.162;2022-08-23T05:18:22;15.60;99.90
6948;DHT22;3513;47.664;9.162;2022-08-23T05:20:48;15.30;99.90
6948;DHT22;3513;47.664;9.162;2022-08-23T05:23:14;15.70;99.90
6948;DHT22;3513;47.664;9.162;2022-08-23T05:25:40;15.70;99.90
6948;DHT22;3513;47.664;9.162;2022-08-23T05:28:16;15.80;99.90
6948;DHT22;3513;47.664;9.162;2022-08-23T05:30:43;15.80;99.90
6948;DHT22;3513;47.664;9.162;2022-08-23T05:33:10;15.80;99.90
6948;DHT22;3513;47.664;9.162;2022-08-23T05:35:35;15.80;99.90
6948;DHT22;3513;47.664;9.162;2022-08-23T05:38:01;15.80;99.90
6948;DHT22;3513;47.664;9.162;2022-08-23T05:40:27;15.80;99.90
6948;DHT22;3513;47.664;9.162;2022-08-23T05:42:53;16.00;99.90
6948;DHT22;3513;47.664;9.162;2022-08-23T05:45:19;16.00;99.90
6948;DHT22;3513;47.664;9.162;2022-08-23T05:47:45;16.10;99.90
6948;DHT22;3513;47.664;9.162;2022-08-23T05:50:12;16.30;99.90
6948;DHT22;3513;47.664;9.162;2022-08-23T05:52:38;16.30;99.90
6948;DHT22;3513;47.664;9.162;2022-08-23T05:55:05;16.40;99.90
6948;DHT22;3513;47.664;9.162;2022-08-23T05:57:33;16.50;99.90
6948;DHT22;3513;47.664;9.162;2022-08-23T05:59:59;16.60;99.90
6948;DHT22;3513;47.664;9.162;2022-08-23T06:02:24;16.70;99.90
6948;DHT22;3513;47.664;9.162;2022-08-23T06:04:50;16.70;99.90
6948;DHT22;3513;47.664;9.162;2022-08-23T06:07:16;16.80;99.90
6948;DHT22;3513;47.664;9.162;2022-08-23T06:09:41;16.90;99.90
6948;DHT22;3513;47.664;9.162;2022-08-23T06:12:07;16.90;99.90
6948;DHT22;3513;47.664;9.162;2022-08-23T06:14:33;17.00;99.90
6948;DHT22;3513;47.664;9.162;2022-08-23T06:16:58;17.10;99.90
6948;DHT22;3513;47.664;9.162;2022-08-23T06:19:24;17.20;99.90
6948;DHT22;3513;47.664;9.162;2022-08-23T06:21:50;17.40;99.90
6948;DHT22;3513;47.664;9.162;2022-08-23T06:24:17;17.40;99.90
6948;DHT22;3513;47.664;9.162;2022-08-23T06:26:44;17.50;99.90
6948;DHT22;3513;47.664;9.162;2022-08-23T06:29:12;17.60;99.90
6948;DHT22;3513;47.664;9.162;2022-08-23T06:31:43;17.60;99.90
6948;DHT22;3513;47.664;9.162;2022-08-23T06:34:19;17.70;99.90
6948;DHT22;3513;47.664;9.162;2022-08-23T06:36:53;17.90;99.90
6948;DHT22;3513;47.664;9.162;2022-08-23T06:39:20;18.10;99.90
6948;DHT22;3513;47.664;9.162;2022-08-23T06:41:46;18.10;99.90
6948;DHT22;3513;47.664;9.162;2022-08-23T06:44:13;18.00;99.90
6948;DHT22;3513;47.664;9.162;2022-08-23T06:46:39;18.20;99.90
6948;DHT22;3513;47.664;9.162;2022-08-23T06:49:06;18.20;99.90
6948;DHT22;3513;47.664;9.162;2022-08-23T06:51:39;18.40;99.90
6948;DHT22;3513;47.664;9.162;2022-08-23T06:54:07;18.50;99.90
6948;DHT22;3513;47.664;9.162;2022-08-23T06:56:34;18.50;99.90
6948;DHT22;3513;47.664;9.162;2022-08-23T06:59:00;18.40;99.90
6948;DHT22;3513;47.664;9.162;2022-08-23T07:01:35;18.50;99.90
6948;DHT22;3513;47.664;9.162;2022-08-23T07:04:04;18.50;99.90
6948;DHT22;3513;47.664;9.162;2022-08-23T07:06:31;18.40;99.90
6948;DHT22;3513;47.664;9.162;2022-08-23T07:08:57;18.40;99.90
6948;DHT22;3513;47.664;9.162;2022-08-23T07:11:27;18.40;99.90
6948;DHT22;3513;47.664;9.162;2022-08-23T07:13:59;18.50;99.90
6948;DHT22;3513;47.664;9.162;2022-08-23T07:16:36;18.50;99.90
6948;DHT22;3513;47.664;9.162;2022-08-23T07:19:03;18.40;99.90
6948;DHT22;3513;47.664;9.162;2022-08-23T07:21:28;18.50;99.90
6948;DHT22;3513;47.664;9.162;2022-08-23T07:23:54;18.50;99.90
6948;DHT22;3513;47.664;9.162;2022-08-23T07:26:20;18.50;99.90
6948;DHT22;3513;47.664;9.162;2022-08-23T07:28:47;18.50;99.90
6948;DHT22;3513;47.664;9.162;2022-08-23T07:31:20;18.60;99.90
6948;DHT22;3513;47.664;9.162;2022-08-23T07:33:47;18.80;99.90
6948;DHT22;3513;47.664;9.162;2022-08-23T07:36:15;19.00;99.90
6948;DHT22;3513;47.664;9.162;2022-08-23T07:38:41;19.00;99.90
6948;DHT22;3513;47.664;9.162;2022-08-23T07:41:07;19.00;99.90
6948;DHT22;3513;47.664;9.162;2022-08-23T07:43:33;19.10;99.90
6948;DHT22;3513;47.664;9.162;2022-08-23T07:45:59;19.20;99.90
6948;DHT22;3513;47.664;9.162;2022-08-23T07:48:25;19.20;99.90
6948;DHT22;3513;47.664;9.162;2022-08-23T07:50:56;19.30;99.90
6948;DHT22;3513;47.664;9.162;2022-08-23T07:53:23;19.40;99.90
6948;DHT22;3513;47.664;9.162;2022-08-23T07:55:50;19.50;99.90
6948;DHT22;3513;47.664;9.162;2022-08-23T07:58:16;19.60;99.90
6948;DHT22;3513;47.664;9.162;2022-08-23T08:00:42;19.80;99.90
6948;DHT22;3513;47.664;9.162;2022-08-23T08:03:08;19.90;99.60
6948;DHT22;3513;47.664;9.162;2022-08-23T08:05:36;20.00;99.30
6948;DHT22;3513;47.664;9.162;2022-08-23T08:08:04;20.20;99.00
6948;DHT22;3513;47.664;9.162;2022-08-23T08:10:30;20.30;98.80
6948;DHT22;3513;47.664;9.162;2022-08-23T08:12:56;20.50;98.30
6948;DHT22;3513;47.664;9.162;2022-08-23T08:15:22;20.60;97.70
6948;DHT22;3513;47.664;9.162;2022-08-23T08:17:51;20.70;97.00
6948;DHT22;3513;47.664;9.162;2022-08-23T08:20:18;20.80;96.60
6948;DHT22;3513;47.664;9.162;2022-08-23T08:22:45;20.80;96.60
6948;DHT22;3513;47.664;9.162;2022-08-23T08:25:12;20.90;96.70
6948;DHT22;3513;47.664;9.162;2022-08-23T08:27:39;21.00;96.40
6948;DHT22;3513;47.664;9.162;2022-08-23T08:30:06;21.10;96.30
6948;DHT22;3513;47.664;9.162;2022-08-23T08:32:32;21.20;96.10
6948;DHT22;3513;47.664;9.162;2022-08-23T08:34:57;21.20;95.60
6948;DHT22;3513;47.664;9.162;2022-08-23T08:37:23;21.30;95.60
6948;DHT22;3513;47.664;9.162;2022-08-23T08:39:49;21.30;95.40
6948;DHT22;3513;47.664;9.162;2022-08-23T08:45:17;21.50;95.30
6948;DHT22;3513;47.664;9.162;2022-08-23T08:50:31;21.60;94.40
6948;DHT22;3513;47.664;9.162;2022-08-23T08:53:23;21.70;94.00
6948;DHT22;3513;47.664;9.162;2022-08-23T08:55:54;21.70;94.00
6948;DHT22;3513;47.664;9.162;2022-08-23T08:58:49;21.70;93.70
6948;DHT22;3513;47.664;9.162;2022-08-23T09:01:16;21.80;94.00
6948;DHT22;3513;47.664;9.162;2022-08-23T09:03:42;21.80;93.60
6948;DHT22;3513;47.664;9.162;2022-08-23T09:08:43;22.00;93.40
6948;DHT22;3513;47.664;9.162;2022-08-23T09:19:15;22.30;92.50
6948;DHT22;3513;47.664;9.162;2022-08-23T09:24:10;22.50;92.10
6948;DHT22;3513;47.664;9.162;2022-08-23T09:26:36;22.50;92.00
6948;DHT22;3513;47.664;9.162;2022-08-23T09:29:18;22.60;91.90
6948;DHT22;3513;47.664;9.162;2022-08-23T09:31:56;22.70;91.80
6948;DHT22;3513;47.664;9.162;2022-08-23T09:34:43;22.70;91.20
6948;DHT22;3513;47.664;9.162;2022-08-23T09:39:42;22.90;90.30
6948;DHT22;3513;47.664;9.162;2022-08-23T09:42:33;23.00;90.50
6948;DHT22;3513;47.664;9.162;2022-08-23T09:45:23;23.20;90.10
6948;DHT22;3513;47.664;9.162;2022-08-23T09:47:48;23.30;87.80
6948;DHT22;3513;47.664;9.162;2022-08-23T09:50:30;23.40;87.30
6948;DHT22;3513;47.664;9.162;2022-08-23T09:53:02;23.40;85.00
6948;DHT22;3513;47.664;9.162;2022-08-23T09:55:30;23.50;84.10
6948;DHT22;3513;47.664;9.162;2022-08-23T09:57:58;23.60;82.20
6948;DHT22;3513;47.664;9.162;2022-08-23T10:00:31;23.70;81.90
6948;DHT22;3513;47.664;9.162;2022-08-23T10:03:18;23.70;80.00
6948;DHT22;3513;47.664;9.162;2022-08-23T10:05:49;23.90;80.70
6948;DHT22;3513;47.664;9.162;2022-08-23T10:08:28;23.90;79.10
6948;DHT22;3513;47.664;9.162;2022-08-23T10:13:39;24.10;77.30
6948;DHT22;3513;47.664;9.162;2022-08-23T10:22:10;24.50;76.70
6948;DHT22;3513;47.664;9.162;2022-08-23T10:24:39;24.60;73.50
6948;DHT22;3513;47.664;9.162;2022-08-23T10:30:16;24.80;68.70
6948;DHT22;3513;47.664;9.162;2022-08-23T10:38:09;25.00;65.80
6948;DHT22;3513;47.664;9.162;2022-08-23T10:40:47;25.10;66.30
6948;DHT22;3513;47.664;9.162;2022-08-23T10:43:42;25.20;65.00
6948;DHT22;3513;47.664;9.162;2022-08-23T10:46:10;25.20;63.30
6948;DHT22;3513;47.664;9.162;2022-08-23T10:48:56;25.30;62.20
6948;DHT22;3513;47.664;9.162;2022-08-23T10:51:24;25.40;61.90
6948;DHT22;3513;47.664;9.162;2022-08-23T10:54:27;25.50;60.30
6948;DHT22;3513;47.664;9.162;2022-08-23T10:57:03;25.60;58.60
6948;DHT22;3513;47.664;9.162;2022-08-23T10:59:31;25.60;56.40
6948;DHT22;3513;47.664;9.162;2022-08-23T11:02:27;25.70;55.30
6948;DHT22;3513;47.664;9.162;2022-08-23T11:13:20;25.80;49.40
6948;DHT22;3513;47.664;9.162;2022-08-23T11:16:12;25.80;49.40
6948;DHT22;3513;47.664;9.162;2022-08-23T11:18:42;25.90;47.30
6948;DHT22;3513;47.664;9.162;2022-08-23T11:23:49;27.20;46.60
6948;DHT22;3513;47.664;9.162;2022-08-23T11:28:48;26.10;45.10
6948;DHT22;3513;47.664;9.162;2022-08-23T11:31:36;26.20;45.20
6948;DHT22;3513;47.664;9.162;2022-08-23T11:34:04;26.30;44.60
6948;DHT22;3513;47.664;9.162;2022-08-23T11:36:32;26.30;45.40
6948;DHT22;3513;47.664;9.162;2022-08-23T11:39:02;26.30;45.50
6948;DHT22;3513;47.664;9.162;2022-08-23T11:54:42;26.80;48.30
6948;DHT22;3513;47.664;9.162;2022-08-23T12:05:23;27.20;48.60
6948;DHT22;3513;47.664;9.162;2022-08-23T12:16:07;27.50;47.80
6948;DHT22;3513;47.664;9.162;2022-08-23T12:18:42;27.60;48.50
6948;DHT22;3513;47.664;9.162;2022-08-23T12:21:20;27.70;48.40
6948;DHT22;3513;47.664;9.162;2022-08-23T12:23:52;27.80;48.90
6948;DHT22;3513;47.664;9.162;2022-08-23T12:26:29;28.00;48.80
6948;DHT22;3513;47.664;9.162;2022-08-23T12:29:02;28.10;49.10
6948;DHT22;3513;47.664;9.162;2022-08-23T12:31:43;28.20;49.70
6948;DHT22;3513;47.664;9.162;2022-08-23T12:34:26;28.30;49.60
6948;DHT22;3513;47.664;9.162;2022-08-23T12:39:36;28.70;48.20
6948;DHT22;3513;47.664;9.162;2022-08-23T12:42:20;28.80;48.30
6948;DHT22;3513;47.664;9.162;2022-08-23T12:45:00;29.00;47.80
6948;DHT22;3513;47.664;9.162;2022-08-23T12:47:29;29.10;47.00
6948;DHT22;3513;47.664;9.162;2022-08-23T12:50:06;29.30;46.40
6948;DHT22;3513;47.664;9.162;2022-08-23T12:52:35;29.40;46.50
6948;DHT22;3513;47.664;9.162;2022-08-23T12:55:17;29.60;45.50
6948;DHT22;3513;47.664;9.162;2022-08-23T12:57:53;29.70;45.10
6948;DHT22;3513;47.664;9.162;2022-08-23T13:00:29;30.00;45.30
6948;DHT22;3513;47.664;9.162;2022-08-23T13:07:59;30.60;44.60
6948;DHT22;3513;47.664;9.162;2022-08-23T13:10:27;30.90;43.00
6948;DHT22;3513;47.664;9.162;2022-08-23T13:12:52;31.10;42.70
6948;DHT22;3513;47.664;9.162;2022-08-23T13:18:05;31.40;42.30
6948;DHT22;3513;47.664;9.162;2022-08-23T13:20:31;31.50;41.30
6948;DHT22;3513;47.664;9.162;2022-08-23T13:23:07;31.70;41.20
6948;DHT22;3513;47.664;9.162;2022-08-23T13:25:41;31.90;40.90
6948;DHT22;3513;47.664;9.162;2022-08-23T13:28:39;32.10;41.00
6948;DHT22;3513;47.664;9.162;2022-08-23T13:31:06;32.40;40.00
6948;DHT22;3513;47.664;9.162;2022-08-23T13:33:33;32.50;39.50
6948;DHT22;3513;47.664;9.162;2022-08-23T13:36:16;32.40;38.10
6948;DHT22;3513;47.664;9.162;2022-08-23T13:38:44;32.30;39.60
6948;DHT22;3513;47.664;9.162;2022-08-23T13:41:33;32.40;38.80
6948;DHT22;3513;47.664;9.162;2022-08-23T13:43:57;32.60;39.60
6948;DHT22;3513;47.664;9.162;2022-08-23T13:46:28;33.00;39.20
6948;DHT22;3513;47.664;9.162;2022-08-23T13:48:59;33.20;37.60
6948;DHT22;3513;47.664;9.162;2022-08-23T13:53:54;33.80;37.10
6948;DHT22;3513;47.664;9.162;2022-08-23T13:56:21;34.10;37.20
6948;DHT22;3513;47.664;9.162;2022-08-23T13:59:05;34.40;35.70
6948;DHT22;3513;47.664;9.162;2022-08-23T14:01:32;34.80;34.20
6948;DHT22;3513;47.664;9.162;2022-08-23T14:03:58;35.10;34.90
6948;DHT22;3513;47.664;9.162;2022-08-23T14:06:23;35.40;33.70
6948;DHT22;3513;47.664;9.162;2022-08-23T14:08:50;35.40;33.10
6948;DHT22;3513;47.664;9.162;2022-08-23T14:11:16;35.60;33.20
6948;DHT22;3513;47.664;9.162;2022-08-23T14:13:44;35.80;32.90
6948;DHT22;3513;47.664;9.162;2022-08-23T14:16:15;36.00;32.20
6948;DHT22;3513;47.664;9.162;2022-08-23T14:18:42;36.10;31.60
6948;DHT22;3513;47.664;9.162;2022-08-23T14:21:08;36.30;31.60
6948;DHT22;3513;47.664;9.162;2022-08-23T14:23:33;36.30;31.50
6948;DHT22;3513;47.664;9.162;2022-08-23T14:25:59;36.50;31.30
6948;DHT22;3513;47.664;9.162;2022-08-23T14:28:27;36.70;30.10
6948;DHT22;3513;47.664;9.162;2022-08-23T14:30:54;36.80;30.00
6948;DHT22;3513;47.664;9.162;2022-08-23T14:33:19;36.90;30.00
6948;DHT22;3513;47.664;9.162;2022-08-23T14:35:46;37.00;30.30
6948;DHT22;3513;47.664;9.162;2022-08-23T14:38:12;37.10;29.40
6948;DHT22;3513;47.664;9.162;2022-08-23T14:40:41;37.10;29.50
6948;DHT22;3513;47.664;9.162;2022-08-23T14:43:10;37.10;30.00
6948;DHT22;3513;47.664;9.162;2022-08-23T14:45:36;37.20;30.00
6948;DHT22;3513;47.664;9.162;2022-08-23T14:48:02;37.30;29.60
6948;DHT22;3513;47.664;9.162;2022-08-23T14:50:28;37.50;29.70
6948;DHT22;3513;47.664;9.162;2022-08-23T14:52:54;37.60;28.60
6948;DHT22;3513;47.664;9.162;2022-08-23T14:55:20;37.60;29.10
6948;DHT22;3513;47.664;9.162;2022-08-23T14:57:46;37.70;29.30
6948;DHT22;3513;47.664;9.162;2022-08-23T15:00:13;37.80;28.10
6948;DHT22;3513;47.664;9.162;2022-08-23T15:02:44;37.90;28.00
6948;DHT22;3513;47.664;9.162;2022-08-23T15:05:11;37.90;28.50
6948;DHT22;3513;47.664;9.162;2022-08-23T15:07:37;38.20;27.90
6948;DHT22;3513;47.664;9.162;2022-08-23T15:10:04;38.30;27.80
6948;DHT22;3513;47.664;9.162;2022-08-23T15:12:30;38.40;28.00
6948;DHT22;3513;47.664;9.162;2022-08-23T15:14:55;38.60;28.30
6948;DHT22;3513;47.664;9.162;2022-08-23T15:17:21;38.70;27.80
6948;DHT22;3513;47.664;9.162;2022-08-23T15:19:46;38.70;27.60
6948;DHT22;3513;47.664;9.162;2022-08-23T15:22:13;38.90;27.30
6948;DHT22;3513;47.664;9.162;2022-08-23T15:24:38;39.10;26.50
6948;DHT22;3513;47.664;9.162;2022-08-23T15:27:05;39.20;26.70
6948;DHT22;3513;47.664;9.162;2022-08-23T15:29:31;39.30;26.20
6948;DHT22;3513;47.664;9.162;2022-08-23T15:31:57;39.40;26.60
6948;DHT22;3513;47.664;9.162;2022-08-23T15:34:23;39.50;26.40
6948;DHT22;3513;47.664;9.162;2022-08-23T15:36:49;39.40;25.90
6948;DHT22;3513;47.664;9.162;2022-08-23T15:39:15;39.40;26.70
6948;DHT22;3513;47.664;9.162;2022-08-23T15:41:40;39.40;25.90
6948;DHT22;3513;47.664;9.162;2022-08-23T15:44:06;39.40;26.10
6948;DHT22;3513;47.664;9.162;2022-08-23T15:46:32;39.50;26.10
6948;DHT22;3513;47.664;9.162;2022-08-23T15:49:03;39.60;26.10
6948;DHT22;3513;47.664;9.162;2022-08-23T15:51:29;39.70;25.30
6948;DHT22;3513;47.664;9.162;2022-08-23T15:53:55;39.90;25.30
6948;DHT22;3513;47.664;9.162;2022-08-23T15:56:26;39.80;24.90
6948;DHT22;3513;47.664;9.162;2022-08-23T15:58:53;40.00;25.50
6948;DHT22;3513;47.664;9.162;2022-08-23T16:01:19;40.10;25.20
6948;DHT22;3513;47.664;9.162;2022-08-23T16:03:47;40.30;25.00
6948;DHT22;3513;47.664;9.162;2022-08-23T16:06:14;40.40;24.70
6948;DHT22;3513;47.664;9.162;2022-08-23T16:08:42;40.60;24.80
6948;DHT22;3513;47.664;9.162;2022-08-23T16:11:09;40.80;24.80
6948;DHT22;3513;47.664;9.162;2022-08-23T16:13:39;41.10;25.00
6948;DHT22;3513;47.664;9.162;2022-08-23T16:18:44;41.30;23.60
6948;DHT22;3513;47.664;9.162;2022-08-23T16:21:11;41.50;23.30
6948;DHT22;3513;47.664;9.162;2022-08-23T16:23:38;41.70;22.90
6948;DHT22;3513;47.664;9.162;2022-08-23T16:26:08;42.00;22.90
6948;DHT22;3513;47.664;9.162;2022-08-23T16:28:34;42.30;22.70
6948;DHT22;3513;47.664;9.162;2022-08-23T16:31:00;42.60;23.00
6948;DHT22;3513;47.664;9.162;2022-08-23T16:33:26;42.80;22.90
6948;DHT22;3513;47.664;9.162;2022-08-23T16:35:51;43.00;22.20
6948;DHT22;3513;47.664;9.162;2022-08-23T16:38:17;43.00;22.30
6948;DHT22;3513;47.664;9.162;2022-08-23T16:40:43;43.00;22.50
6948;DHT22;3513;47.664;9.162;2022-08-23T16:43:08;43.00;21.20
6948;DHT22;3513;47.664;9.162;2022-08-23T16:45:34;43.00;22.30
6948;DHT22;3513;47.664;9.162;2022-08-23T16:47:59;43.00;22.30
6948;DHT22;3513;47.664;9.162;2022-08-23T16:50:25;43.00;22.30
6948;DHT22;3513;47.664;9.162;2022-08-23T16:52:51;42.90;22.40
6948;DHT22;3513;47.664;9.162;2022-08-23T16:55:17;42.80;21.90
6948;DHT22;3513;47.664;9.162;2022-08-23T16:57:43;42.60;21.90
6948;DHT22;3513;47.664;9.162;2022-08-23T17:00:09;42.20;22.00
6948;DHT22;3513;47.664;9.162;2022-08-23T17:02:37;41.90;22.40
6948;DHT22;3513;47.664;9.162;2022-08-23T17:05:07;41.60;22.90
6948;DHT22;3513;47.664;9.162;2022-08-23T17:07:33;41.20;23.20
6948;DHT22;3513;47.664;9.162;2022-08-23T17:09:59;40.90;23.80
6948;DHT22;3513;47.664;9.162;2022-08-23T17:12:25;40.60;23.70
6948;DHT22;3513;47.664;9.162;2022-08-23T17:14:50;40.20;24.20
6948;DHT22;3513;47.664;9.162;2022-08-23T17:17:16;39.70;24.30
6948;DHT22;3513;47.664;9.162;2022-08-23T17:19:42;39.40;24.70
6948;DHT22;3513;47.664;9.162;2022-08-23T17:22:09;39.10;25.10
6948;DHT22;3513;47.664;9.162;2022-08-23T17:24:35;38.90;25.40
6948;DHT22;3513;47.664;9.162;2022-08-23T17:27:01;38.70;25.80
6948;DHT22;3513;47.664;9.162;2022-08-23T17:29:27;38.60;25.80
6948;DHT22;3513;47.664;9.162;2022-08-23T17:31:53;38.50;25.90
6948;DHT22;3513;47.664;9.162;2022-08-23T17:34:18;38.30;26.00
6948;DHT22;3513;47.664;9.162;2022-08-23T17:36:50;38.20;26.30
6948;DHT22;3513;47.664;9.162;2022-08-23T17:39:19;38.00;26.30
6948;DHT22;3513;47.664;9.162;2022-08-23T17:41:45;37.90;26.50
6948;DHT22;3513;47.664;9.162;2022-08-23T17:44:11;37.70;26.90
6948;DHT22;3513;47.664;9.162;2022-08-23T17:46:39;37.50;27.00
6948;DHT22;3513;47.664;9.162;2022-08-23T17:49:06;37.30;27.30
6948;DHT22;3513;47.664;9.162;2022-08-23T17:51:33;36.90;27.70
6948;DHT22;3513;47.664;9.162;2022-08-23T17:54:00;36.70;27.90
6948;DHT22;3513;47.664;9.162;2022-08-23T17:56:26;36.40;28.60
6948;DHT22;3513;47.664;9.162;2022-08-23T17:58:52;36.10;28.90
6948;DHT22;3513;47.664;9.162;2022-08-23T18:01:17;35.40;29.40